Time;durP1;ratioP1;P1;durP2;ratioP2;P2;SDS_P1;SDS_P2;PMS_P1;PMS_P2;Temp;Humidity;BMP_temperature;BMP_pressure;BME280_temperature;BME280_humidity;BME280_pressure;Samples;Min_cycle;Max_cycle;Signal;HPM_P1;HPM_P2
2022/03/11 00:00:43;;;;;;;14.50;7.20;;;;;;;;;;5035810;28;20497;-75
2022/03/11 00:03:11;;;;;;;13.10;7.50;;;;;;;;;;5032210;28;20080;-75
2022/03/11 00:05:41;;;;;;;15.45;7.80;;;;;;;;;;5030319;28;20053;-72
2022/03/11 00:08:09;;;;;;;14.40;6.78;;;;;;;;;;5033900;28;20068;-74
2022/03/11 00:10:37;;;;;;;17.00;7.68;;;;;;;;;;5032733;28;20045;-74
2022/03/11 00:13:05;;;;;;;19.00;7.72;;;;;;;;;;5033435;28;20049;-75
2022/03/11 00:15:32;;;;;;;13.98;6.90;;;;;;;;;;5030497;28;20098;-73
2022/03/11 00:18:03;;;;;;;15.80;7.32;;;;;;;;;;5032309;28;20053;-73
2022/03/11 00:20:31;;;;;;;15.32;7.20;;;;;;;;;;5037317;28;20060;-73
2022/03/11 00:23:01;;;;;;;13.70;7.03;;;;;;;;;;5032020;28;20053;-73
2022/03/11 00:25:31;;;;;;;14.65;7.75;;;;;;;;;;5032552;28;20049;-73
2022/03/11 00:28:00;;;;;;;11.65;7.15;;;;;;;;;;5032295;28;20151;-73
2022/03/11 00:30:28;;;;;;;16.27;6.70;;;;;;;;;;5031412;28;20060;-74
2022/03/11 00:32:55;;;;;;;13.18;6.40;;;;;;;;;;5030991;28;20143;-73
2022/03/11 00:35:23;;;;;;;14.55;7.05;;;;;;;;;;5037032;28;20132;-73
2022/03/11 00:37:51;;;;;;;14.10;7.60;;;;;;;;;;5032366;28;20056;-73
2022/03/11 00:40:20;;;;;;;15.35;7.65;;;;;;;;;;5031126;28;20139;-73
2022/03/11 00:42:48;;;;;;;14.00;7.78;;;;;;;;;;5031425;28;20045;-73
2022/03/11 00:45:15;;;;;;;17.48;8.52;;;;;;;;;;5032924;28;20051;-74
2022/03/11 00:47:44;;;;;;;17.60;7.93;;;;;;;;;;5034533;28;20048;-74
2022/03/11 00:50:12;;;;;;;16.50;7.20;;;;;;;;;;5037893;28;20053;-74
2022/03/11 00:53:10;;;;;;;14.93;8.07;;;;;;;;;;5032119;28;20048;-74
2022/03/11 01:02:04;;;;;;;16.95;7.28;;;;;;;;;;5027842;28;20003;-74
2022/03/11 01:04:32;;;;;;;14.05;6.85;;;;;;;;;;5035911;28;20143;-74
2022/03/11 01:07:00;;;;;;;17.58;8.38;;;;;;;;;;5031642;28;20111;-74
2022/03/11 01:09:28;;;;;;;18.20;8.13;;;;;;;;;;5033352;28;20152;-74
2022/03/11 01:11:55;;;;;;;15.07;7.60;;;;;;;;;;5033342;28;20135;-74
2022/03/11 01:14:23;;;;;;;13.68;7.07;;;;;;;;;;5031834;28;20192;-74
2022/03/11 01:17:16;;;;;;;13.52;7.28;;;;;;;;;;5035924;28;20079;-74
2022/03/11 01:19:44;;;;;;;15.25;7.22;;;;;;;;;;5034524;28;20049;-73
2022/03/11 01:22:12;;;;;;;16.48;8.18;;;;;;;;;;5030730;28;20399;-73
2022/03/11 01:24:39;;;;;;;15.98;7.15;;;;;;;;;;5031793;28;20122;-74
2022/03/11 01:27:07;;;;;;;14.27;7.93;;;;;;;;;;5032375;28;20273;-74
2022/03/11 01:29:35;;;;;;;17.42;8.00;;;;;;;;;;5033393;28;20167;-73
2022/03/11 01:32:03;;;;;;;17.58;8.23;;;;;;;;;;5031315;28;20063;-74
2022/03/11 01:34:32;;;;;;;17.98;8.68;;;;;;;;;;5034219;28;20380;-73
2022/03/11 01:37:18;;;;;;;17.05;7.82;;;;;;;;;;5032613;28;20061;-73
2022/03/11 01:40:04;;;;;;;19.30;8.80;;;;;;;;;;5045896;28;20069;-73
2022/03/11 01:42:34;;;;;;;16.02;7.95;;;;;;;;;;5036025;28;20046;-73
2022/03/11 01:45:02;;;;;;;14.95;8.32;;;;;;;;;;5036640;28;20052;-74
2022/03/11 01:47:30;;;;;;;17.13;8.80;;;;;;;;;;5036712;28;20068;-73
2022/03/11 01:49:59;;;;;;;16.80;8.18;;;;;;;;;;5035816;28;20512;-73
2022/03/11 01:52:26;;;;;;;17.70;8.48;;;;;;;;;;5030864;28;21351;-73
2022/03/11 01:54:54;;;;;;;18.75;8.63;;;;;;;;;;5035903;28;20099;-73
2022/03/11 01:57:22;;;;;;;20.92;8.40;;;;;;;;;;5036386;28;20139;-74
2022/03/11 01:59:50;;;;;;;18.50;8.98;;;;;;;;;;5034119;28;20049;-74
2022/03/11 02:02:18;;;;;;;17.70;8.68;;;;;;;;;;5036047;28;20099;-74
2022/03/11 02:04:46;;;;;;;17.83;8.48;;;;;;;;;;5037419;28;20064;-74
2022/03/11 02:07:15;;;;;;;17.95;8.30;;;;;;;;;;5032040;28;20136;-74
2022/03/11 02:09:42;;;;;;;17.45;8.50;;;;;;;;;;5034299;28;20052;-74
2022/03/11 02:12:10;;;;;;;22.70;9.40;;;;;;;;;;5037894;28;20110;-75
2022/03/11 02:14:39;;;;;;;16.20;8.38;;;;;;;;;;5036908;28;20053;-75
2022/03/11 02:17:09;;;;;;;19.25;9.18;;;;;;;;;;5034424;28;20063;-73
2022/03/11 02:19:37;;;;;;;17.42;7.88;;;;;;;;;;5036675;28;20314;-73
2022/03/11 02:22:05;;;;;;;17.92;9.80;;;;;;;;;;5036975;28;20124;-74
2022/03/11 02:24:34;;;;;;;18.25;8.80;;;;;;;;;;5033063;28;20049;-73
2022/03/11 02:27:02;;;;;;;20.83;9.02;;;;;;;;;;5034049;28;20327;-76
2022/03/11 02:29:29;;;;;;;19.15;9.25;;;;;;;;;;5033388;28;20057;-75
2022/03/11 02:31:57;;;;;;;19.27;9.35;;;;;;;;;;5034816;28;20042;-74
2022/03/11 02:34:25;;;;;;;15.82;7.03;;;;;;;;;;5036374;28;20103;-74
2022/03/11 02:36:55;;;;;;;13.88;8.02;;;;;;;;;;5034408;28;20163;-74
2022/03/11 02:39:22;;;;;;;21.83;9.90;;;;;;;;;;5034889;28;20045;-74
2022/03/11 02:41:51;;;;;;;17.73;8.57;;;;;;;;;;5035471;28;20061;-74
2022/03/11 02:44:19;;;;;;;19.23;9.88;;;;;;;;;;5037998;28;20053;-74
2022/03/11 02:46:47;;;;;;;16.08;7.88;;;;;;;;;;5035286;28;20048;-74
2022/03/11 02:49:15;;;;;;;17.77;9.05;;;;;;;;;;5033143;28;20171;-73
2022/03/11 02:51:42;;;;;;;18.13;8.80;;;;;;;;;;5036237;28;20095;-74
2022/03/11 02:54:12;;;;;;;20.25;9.80;;;;;;;;;;5033163;28;20466;-76
2022/03/11 02:57:06;;;;;;;19.27;8.45;;;;;;;;;;5033131;28;20063;-76
2022/03/11 02:59:34;;;;;;;18.35;9.32;;;;;;;;;;5036814;28;20113;-73
2022/03/11 03:02:02;;;;;;;20.58;9.90;;;;;;;;;;5034366;28;20052;-73
2022/03/11 03:04:30;;;;;;;18.38;8.63;;;;;;;;;;5034730;28;20053;-73
2022/03/11 03:06:58;;;;;;;16.98;9.05;;;;;;;;;;5033957;28;20143;-73
2022/03/11 03:09:25;;;;;;;18.83;9.10;;;;;;;;;;5035576;28;20057;-74
2022/03/11 03:11:53;;;;;;;18.63;9.40;;;;;;;;;;5033964;28;20126;-73
2022/03/11 03:14:22;;;;;;;20.92;10.23;;;;;;;;;;5035430;28;20138;-73
2022/03/11 03:16:50;;;;;;;17.88;8.93;;;;;;;;;;5033824;28;20524;-74
2022/03/11 03:19:18;;;;;;;18.83;9.23;;;;;;;;;;5034617;28;20053;-74
2022/03/11 03:21:46;;;;;;;18.42;9.70;;;;;;;;;;5035113;28;20086;-74
2022/03/11 03:24:14;;;;;;;21.05;9.77;;;;;;;;;;5033980;28;20049;-74
2022/03/11 03:26:41;;;;;;;20.90;9.10;;;;;;;;;;5036866;28;20316;-74
2022/03/11 03:29:09;;;;;;;18.88;9.75;;;;;;;;;;5034105;28;20055;-74
2022/03/11 03:31:38;;;;;;;22.00;10.75;;;;;;;;;;5034139;28;20143;-74
2022/03/11 03:34:06;;;;;;;21.48;10.10;;;;;;;;;;5033132;28;20461;-74
2022/03/11 03:36:34;;;;;;;22.40;10.05;;;;;;;;;;5032546;28;20061;-74
2022/03/11 03:39:02;;;;;;;19.02;8.85;;;;;;;;;;5034002;28;20056;-74
2022/03/11 03:41:29;;;;;;;21.55;9.80;;;;;;;;;;5034710;28;20053;-73
2022/03/11 03:43:57;;;;;;;17.77;10.25;;;;;;;;;;5034431;28;20477;-75
2022/03/11 03:50:32;;;;;;;18.03;9.17;;;;;;;;;;5044708;28;20056;-73
2022/03/11 04:00:31;;;;;;;17.38;8.75;;;;;;;;;;4832583;29;20201;-74
2022/03/11 04:02:59;;;;;;;23.55;9.10;;;;;;;;;;4903678;29;20557;-73
2022/03/11 04:05:27;;;;;;;22.73;9.90;;;;;;;;;;4927886;28;20061;-76
2022/03/11 04:07:54;;;;;;;17.80;8.98;;;;;;;;;;4958168;28;20051;-74
2022/03/11 04:10:22;;;;;;;21.27;9.18;;;;;;;;;;4957354;28;20047;-75
2022/03/11 04:12:50;;;;;;;21.05;9.30;;;;;;;;;;4958473;28;20081;-74
2022/03/11 04:15:20;;;;;;;17.13;7.57;;;;;;;;;;4958346;28;20094;-74
2022/03/11 04:17:50;;;;;;;19.45;8.93;;;;;;;;;;4957782;28;20422;-74
2022/03/11 04:20:18;;;;;;;17.23;9.50;;;;;;;;;;4957331;28;20042;-74
2022/03/11 04:22:46;;;;;;;20.00;8.75;;;;;;;;;;4956325;28;20117;-74
2022/03/11 04:25:15;;;;;;;19.25;9.52;;;;;;;;;;4953816;28;20042;-74
2022/03/11 04:27:42;;;;;;;21.83;9.45;;;;;;;;;;4957123;28;20053;-74
2022/03/11 04:30:10;;;;;;;20.48;9.45;;;;;;;;;;4965124;28;20443;-73
2022/03/11 04:32:38;;;;;;;18.02;8.98;;;;;;;;;;4986861;28;20049;-75
2022/03/11 04:35:08;;;;;;;15.57;9.55;;;;;;;;;;4991094;28;20050;-74
2022/03/11 04:37:36;;;;;;;21.00;10.10;;;;;;;;;;5032025;28;20557;-74
2022/03/11 04:40:04;;;;;;;18.25;8.88;;;;;;;;;;5033197;28;20114;-74
2022/03/11 04:42:32;;;;;;;10.95;6.15;;;;;;;;;;5031344;28;20052;-74
2022/03/11 04:45:00;;;;;;;15.82;7.82;;;;;;;;;;5035654;28;20129;-74
2022/03/11 04:47:27;;;;;;;19.02;8.88;;;;;;;;;;5031655;28;20053;-74
2022/03/11 04:49:55;;;;;;;16.88;8.25;;;;;;;;;;5030067;28;20842;-73
2022/03/11 04:52:24;;;;;;;16.73;9.15;;;;;;;;;;5031649;28;20059;-74
2022/03/11 04:54:52;;;;;;;15.50;8.60;;;;;;;;;;5031488;28;20047;-76
2022/03/11 04:57:20;;;;;;;19.88;8.02;;;;;;;;;;5031719;28;20465;-73
2022/03/11 04:59:47;;;;;;;19.45;8.82;;;;;;;;;;5029348;28;20112;-74
2022/03/11 05:02:24;;;;;;;18.58;9.15;;;;;;;;;;5035538;28;20153;-73
2022/03/11 05:04:51;;;;;;;17.75;9.50;;;;;;;;;;5033713;28;20048;-74
2022/03/11 05:07:19;;;;;;;17.33;8.20;;;;;;;;;;5034270;28;20060;-73
2022/03/11 05:09:48;;;;;;;18.80;8.75;;;;;;;;;;5032604;28;20065;-74
2022/03/11 05:12:16;;;;;;;19.92;8.27;;;;;;;;;;5033936;28;20045;-74
2022/03/11 05:14:43;;;;;;;17.23;8.50;;;;;;;;;;5035155;28;20037;-73
2022/03/11 05:17:11;;;;;;;17.13;7.50;;;;;;;;;;5038576;28;20411;-73
2022/03/11 05:19:39;;;;;;;17.05;7.82;;;;;;;;;;5036512;28;20251;-73
2022/03/11 05:22:07;;;;;;;17.95;9.45;;;;;;;;;;5035769;28;20084;-73
2022/03/11 05:24:34;;;;;;;21.17;10.25;;;;;;;;;;5037198;28;20510;-73
2022/03/11 05:27:04;;;;;;;21.52;9.25;;;;;;;;;;5036604;28;20154;-74
2022/03/11 05:29:32;;;;;;;16.65;7.97;;;;;;;;;;5032996;28;20485;-73
2022/03/11 05:32:00;;;;;;;15.18;7.97;;;;;;;;;;5032584;28;20053;-73
2022/03/11 05:34:28;;;;;;;15.27;7.95;;;;;;;;;;5039247;28;20056;-74
2022/03/11 05:36:56;;;;;;;19.40;8.80;;;;;;;;;;5035516;28;20136;-74
2022/03/11 05:39:23;;;;;;;18.33;8.95;;;;;;;;;;5039245;28;20053;-74
2022/03/11 05:42:16;;;;;;;19.02;8.90;;;;;;;;;;5035705;28;20064;-74
2022/03/11 05:44:43;;;;;;;20.75;8.95;;;;;;;;;;5038670;28;20584;-74
2022/03/11 05:47:11;;;;;;;19.42;9.05;;;;;;;;;;5037292;28;20099;-73
2022/03/11 05:49:39;;;;;;;17.02;9.18;;;;;;;;;;5040332;28;20480;-74
2022/03/11 05:52:06;;;;;;;19.35;9.10;;;;;;;;;;5032826;28;20052;-73
2022/03/11 05:54:38;;;;;;;17.48;8.75;;;;;;;;;;5031790;28;20041;-74
2022/03/11 05:57:10;;;;;;;19.42;8.35;;;;;;;;;;5035553;28;20489;-74
2022/03/11 05:59:39;;;;;;;18.48;9.48;;;;;;;;;;5035121;28;21089;-74
2022/03/11 06:02:07;;;;;;;18.05;8.77;;;;;;;;;;5039144;28;20122;-73
2022/03/11 06:04:36;;;;;;;17.30;8.65;;;;;;;;;;5038683;28;20588;-74
2022/03/11 06:07:04;;;;;;;16.92;8.00;;;;;;;;;;5033286;28;20466;-74
2022/03/11 06:09:32;;;;;;;19.45;8.75;;;;;;;;;;5032557;28;20060;-73
2022/03/11 06:11:59;;;;;;;22.92;9.48;;;;;;;;;;5031796;28;20060;-74
2022/03/11 06:14:27;;;;;;;14.43;6.95;;;;;;;;;;5039002;28;20053;-73
2022/03/11 06:16:56;;;;;;;19.90;9.32;;;;;;;;;;5035961;28;20053;-74
2022/03/11 06:19:25;;;;;;;18.27;9.00;;;;;;;;;;5037019;28;20048;-73
2022/03/11 06:21:55;;;;;;;17.48;7.88;;;;;;;;;;5031288;28;20060;-74
2022/03/11 06:24:22;;;;;;;11.27;6.40;;;;;;;;;;5033438;28;20482;-74
2022/03/11 06:26:50;;;;;;;18.65;10.02;;;;;;;;;;5034831;28;20146;-74
2022/03/11 06:29:21;;;;;;;18.85;8.30;;;;;;;;;;5038058;28;20118;-73
2022/03/11 06:31:48;;;;;;;20.25;8.30;;;;;;;;;;5033545;28;20087;-74
2022/03/11 06:34:18;;;;;;;18.98;7.97;;;;;;;;;;5037376;28;20037;-74
2022/03/11 06:36:46;;;;;;;18.52;8.52;;;;;;;;;;5036539;28;20087;-74
2022/03/11 06:39:14;;;;;;;16.92;8.82;;;;;;;;;;5030933;28;20323;-74
2022/03/11 06:41:43;;;;;;;17.13;8.15;;;;;;;;;;5029642;28;20055;-74
2022/03/11 06:44:10;;;;;;;14.23;6.97;;;;;;;;;;5034069;28;20053;-73
2022/03/11 06:46:38;;;;;;;18.50;8.55;;;;;;;;;;5034956;28;20069;-74
2022/03/11 06:49:09;;;;;;;17.77;8.80;;;;;;;;;;5034504;28;20581;-76
2022/03/11 06:51:39;;;;;;;17.02;8.00;;;;;;;;;;5036513;28;20072;-73
2022/03/11 06:54:31;;;;;;;;;;;;;;;;;;5029830;28;20056;-74
2022/03/11 06:56:59;;;;;;;15.70;7.22;;;;;;;;;;5030912;28;19932;-75
2022/03/11 06:59:27;;;;;;;17.05;7.85;;;;;;;;;;5031463;28;20053;-75
2022/03/11 07:01:55;;;;;;;19.90;7.93;;;;;;;;;;5033063;28;20053;-76
2022/03/11 07:04:23;;;;;;;18.60;9.00;;;;;;;;;;5032811;28;20068;-75
2022/03/11 07:06:55;;;;;;;15.90;7.70;;;;;;;;;;5036678;28;20091;-74
2022/03/11 07:09:24;;;;;;;19.17;7.63;;;;;;;;;;5037593;28;20436;-74
2022/03/11 07:11:57;;;;;;;17.55;8.40;;;;;;;;;;5034348;28;20045;-74
2022/03/11 07:14:25;;;;;;;16.50;7.88;;;;;;;;;;5039572;28;20651;-74
2022/03/11 07:16:56;;;;;;;14.15;7.00;;;;;;;;;;5036607;28;20113;-75
2022/03/11 07:19:25;;;;;;;16.17;7.63;;;;;;;;;;5036904;28;20053;-76
2022/03/11 07:21:55;;;;;;;17.70;8.98;;;;;;;;;;5033475;28;20057;-75
2022/03/11 07:24:22;;;;;;;14.63;7.18;;;;;;;;;;5039672;28;20083;-74
2022/03/11 07:26:53;;;;;;;14.23;7.38;;;;;;;;;;5036760;28;20053;-74
2022/03/11 07:29:21;;;;;;;14.80;7.63;;;;;;;;;;5038194;28;20088;-74
2022/03/11 07:31:50;;;;;;;13.93;7.78;;;;;;;;;;5033797;28;20459;-74
2022/03/11 07:34:20;;;;;;;16.95;7.18;;;;;;;;;;5030636;28;20049;-74
2022/03/11 07:36:48;;;;;;;16.88;8.38;;;;;;;;;;5031990;28;20064;-75
2022/03/11 07:39:17;;;;;;;19.38;8.15;;;;;;;;;;5032554;28;20119;-74
2022/03/11 07:41:45;;;;;;;13.45;7.40;;;;;;;;;;5033656;28;20495;-74
2022/03/11 07:44:13;;;;;;;16.80;6.60;;;;;;;;;;5033577;28;20079;-74
2022/03/11 07:46:46;;;;;;;17.77;8.93;;;;;;;;;;5036577;28;20079;-74
2022/03/11 07:49:14;;;;;;;14.88;7.15;;;;;;;;;;5039501;28;20235;-74
2022/03/11 07:51:41;;;;;;;12.30;7.60;;;;;;;;;;5034494;28;20053;-74
2022/03/11 07:54:09;;;;;;;12.65;6.90;;;;;;;;;;5034694;28;20197;-74
2022/03/11 07:56:38;;;;;;;15.43;7.70;;;;;;;;;;5030208;28;20322;-74
2022/03/11 07:59:07;;;;;;;14.98;5.93;;;;;;;;;;5038355;28;20135;-74
2022/03/11 08:01:35;;;;;;;14.70;7.75;;;;;;;;;;5035037;28;20549;-74
2022/03/11 08:04:04;;;;;;;16.27;8.60;;;;;;;;;;5031675;28;20592;-73
2022/03/11 08:06:36;;;;;;;15.63;8.38;;;;;;;;;;5034838;28;20045;-75
2022/03/11 08:09:04;;;;;;;13.70;7.68;;;;;;;;;;5036026;28;20282;-74
2022/03/11 08:11:31;;;;;;;14.85;7.25;;;;;;;;;;5033790;28;20041;-74
2022/03/11 08:14:00;;;;;;;15.63;7.28;;;;;;;;;;5032441;28;20143;-73
2022/03/11 08:16:28;;;;;;;14.95;7.57;;;;;;;;;;5034523;28;20121;-75
2022/03/11 08:18:58;;;;;;;14.73;6.93;;;;;;;;;;5037672;28;20469;-72
2022/03/11 08:21:26;;;;;;;14.23;8.48;;;;;;;;;;5035025;28;20072;-76
2022/03/11 08:23:57;;;;;;;17.42;8.43;;;;;;;;;;5035067;28;20068;-74
2022/03/11 08:26:25;;;;;;;16.23;8.57;;;;;;;;;;5034318;28;20108;-74
2022/03/11 08:28:53;;;;;;;17.75;7.72;;;;;;;;;;5037562;28;20057;-74
2022/03/11 08:31:42;;;;;;;16.85;8.30;;;;;;;;;;5030167;28;20391;-73
2022/03/11 08:34:10;;;;;;;18.25;9.05;;;;;;;;;;5037722;28;20049;-74
2022/03/11 08:36:38;;;;;;;17.15;8.40;;;;;;;;;;5033948;28;20037;-75
2022/03/11 08:39:08;;;;;;;18.92;8.30;;;;;;;;;;5037033;28;20087;-73
2022/03/11 08:41:36;;;;;;;15.35;7.47;;;;;;;;;;5033571;28;20180;-73
2022/03/11 08:44:06;;;;;;;16.42;8.30;;;;;;;;;;5034167;28;20048;-74
2022/03/11 08:46:34;;;;;;;19.83;8.43;;;;;;;;;;5035391;28;20083;-74
2022/03/11 08:49:03;;;;;;;15.25;7.38;;;;;;;;;;5040710;28;20090;-74
2022/03/11 08:51:31;;;;;;;17.13;8.13;;;;;;;;;;5038285;28;20091;-73
2022/03/11 08:53:59;;;;;;;15.45;8.25;;;;;;;;;;5034664;28;20527;-73
2022/03/11 08:56:26;;;;;;;17.23;8.88;;;;;;;;;;5035594;28;22023;-74
2022/03/11 08:58:55;;;;;;;15.93;8.07;;;;;;;;;;5035530;28;20283;-74
2022/03/11 09:01:23;;;;;;;17.80;8.00;;;;;;;;;;5036730;28;20046;-74
2022/03/11 09:03:52;;;;;;;18.30;8.27;;;;;;;;;;5034258;28;20084;-74
2022/03/11 09:06:22;;;;;;;15.90;8.00;;;;;;;;;;5038433;28;20049;-74
2022/03/11 09:08:50;;;;;;;14.95;7.63;;;;;;;;;;5036212;28;20057;-72
2022/03/11 09:11:17;;;;;;;17.85;9.15;;;;;;;;;;5032433;28;20142;-73
2022/03/11 09:13:50;;;;;;;15.98;7.13;;;;;;;;;;5035628;28;20071;-73
2022/03/11 09:16:18;;;;;;;16.25;9.18;;;;;;;;;;5037373;28;20453;-74
2022/03/11 09:18:46;;;;;;;16.08;8.30;;;;;;;;;;5036093;28;20048;-74
2022/03/11 09:21:14;;;;;;;13.60;7.13;;;;;;;;;;5038772;28;20060;-73
2022/03/11 09:23:43;;;;;;;16.60;8.55;;;;;;;;;;5038842;28;20397;-74
2022/03/11 09:26:11;;;;;;;15.68;8.05;;;;;;;;;;5037494;28;20488;-76
2022/03/11 09:28:38;;;;;;;20.60;8.00;;;;;;;;;;5036823;28;20107;-73
2022/03/11 09:31:08;;;;;;;17.77;8.60;;;;;;;;;;5040624;28;20061;-77
2022/03/11 09:33:37;;;;;;;22.88;9.68;;;;;;;;;;5033926;28;20515;-78
2022/03/11 09:36:05;;;;;;;15.25;7.50;;;;;;;;;;5036601;28;20621;-75
2022/03/11 09:38:33;;;;;;;9.38;6.47;;;;;;;;;;5035470;28;20053;-75
2022/03/11 09:41:03;;;;;;;16.58;7.38;;;;;;;;;;5035167;28;20053;-75
2022/03/11 09:43:31;;;;;;;13.05;7.32;;;;;;;;;;5036391;28;20049;-78
2022/03/11 09:45:59;;;;;;;20.58;8.77;;;;;;;;;;5032555;28;20058;-77
2022/03/11 09:48:27;;;;;;;16.33;8.07;;;;;;;;;;5038110;28;20049;-73
2022/03/11 09:50:55;;;;;;;12.88;7.30;;;;;;;;;;5034282;28;20417;-74
2022/03/11 09:53:23;;;;;;;16.33;8.57;;;;;;;;;;5034355;28;20084;-73
2022/03/11 09:55:51;;;;;;;15.90;8.52;;;;;;;;;;5038329;28;20103;-73
2022/03/11 09:58:56;;;;;;;15.98;7.82;;;;;;;;;;5040293;28;20128;-73
2022/03/11 10:04:29;;;;;;;15.70;7.30;;;;;;;;;;5034138;28;20049;-75
2022/03/11 10:07:00;;;;;;;16.17;8.45;;;;;;;;;;5040051;28;20038;-74
2022/03/11 10:09:30;;;;;;;19.17;8.48;;;;;;;;;;5037993;28;20098;-74
2022/03/11 10:12:00;;;;;;;17.13;9.27;;;;;;;;;;5036526;28;20144;-73
2022/03/11 10:14:28;;;;;;;18.50;7.68;;;;;;;;;;5038425;28;20492;-75
2022/03/11 10:16:58;;;;;;;17.83;8.15;;;;;;;;;;5038835;28;20619;-74
2022/03/11 10:19:26;;;;;;;18.17;9.55;;;;;;;;;;5034169;28;20092;-76
2022/03/11 10:21:56;;;;;;;16.30;8.63;;;;;;;;;;5043210;28;20056;-74
2022/03/11 10:24:25;;;;;;;17.52;9.02;;;;;;;;;;5040962;28;20071;-73
2022/03/11 10:26:54;;;;;;;15.05;8.60;;;;;;;;;;5036825;28;20083;-73
2022/03/11 10:29:22;;;;;;;12.68;7.20;;;;;;;;;;5041893;28;20056;-74
2022/03/11 10:31:51;;;;;;;17.80;8.65;;;;;;;;;;5040920;28;20067;-76
2022/03/11 10:34:23;;;;;;;19.02;8.93;;;;;;;;;;5036957;28;20176;-75
2022/03/11 10:36:53;;;;;;;14.55;7.65;;;;;;;;;;5038305;28;20046;-73
2022/03/11 10:39:25;;;;;;;18.42;8.77;;;;;;;;;;5038464;28;20084;-75
2022/03/11 10:41:59;;;;;;;18.10;8.48;;;;;;;;;;5041057;28;20456;-74
2022/03/11 10:44:29;;;;;;;15.07;8.43;;;;;;;;;;5035588;28;20049;-75
2022/03/11 10:47:01;;;;;;;12.82;7.22;;;;;;;;;;5038748;28;20104;-75
2022/03/11 10:49:33;;;;;;;16.03;8.43;;;;;;;;;;5035786;28;20504;-74
2022/03/11 10:52:02;;;;;;;18.58;8.85;;;;;;;;;;5038790;28;20330;-75
2022/03/11 10:54:30;;;;;;;16.17;9.23;;;;;;;;;;5036244;28;20057;-75
2022/03/11 10:57:09;;;;;;;16.98;8.40;;;;;;;;;;5035382;28;20049;-75
2022/03/11 10:59:38;;;;;;;18.65;8.52;;;;;;;;;;5040678;28;20055;-70
2022/03/11 11:02:06;;;;;;;19.50;8.57;;;;;;;;;;5037313;28;20055;-73
2022/03/11 11:04:40;;;;;;;17.85;8.98;;;;;;;;;;5035916;28;20067;-74
2022/03/11 11:07:09;;;;;;;14.47;8.70;;;;;;;;;;5039524;28;20056;-73
2022/03/11 11:10:01;;;;;;;14.50;9.23;;;;;;;;;;5035237;28;20107;-74
2022/03/11 11:12:32;;;;;;;15.73;9.07;;;;;;;;;;5038758;28;20099;-73
2022/03/11 11:15:00;;;;;;;16.23;9.15;;;;;;;;;;5037923;28;20084;-74
2022/03/11 11:17:28;;;;;;;16.05;8.50;;;;;;;;;;5037162;28;20060;-73
2022/03/11 11:20:03;;;;;;;16.63;8.63;;;;;;;;;;5040419;28;20095;-74
2022/03/11 11:22:30;;;;;;;;;;;;;;;;;;5036505;28;20060;-74
2022/03/11 11:25:03;;;;;;;15.48;8.35;;;;;;;;;;5035153;28;20365;-74
2022/03/11 11:27:32;;;;;;;15.82;9.23;;;;;;;;;;5035725;28;20067;-74
2022/03/11 11:30:03;;;;;;;18.20;9.30;;;;;;;;;;5035605;28;20045;-74
2022/03/11 11:32:30;;;;;;;16.40;8.77;;;;;;;;;;5029526;28;20050;-75
2022/03/11 11:35:22;;;;;;;15.93;8.27;;;;;;;;;;5039251;28;20512;-74
2022/03/11 11:37:53;;;;;;;16.38;8.77;;;;;;;;;;5034088;28;20179;-74
2022/03/11 11:40:28;;;;;;;17.55;8.90;;;;;;;;;;5036541;28;20142;-73
2022/03/11 11:43:15;;;;;;;15.60;9.02;;;;;;;;;;5033657;28;20056;-75
2022/03/11 11:45:44;;;;;;;16.52;7.97;;;;;;;;;;5034705;28;20279;-74
2022/03/11 11:48:31;;;;;;;16.98;9.07;;;;;;;;;;5031731;28;20061;-74
2022/03/11 11:51:01;;;;;;;16.70;8.50;;;;;;;;;;5035096;28;20053;-73
2022/03/11 11:53:40;;;;;;;18.98;9.52;;;;;;;;;;5030993;28;20053;-73
2022/03/11 11:56:24;;;;;;;18.10;9.27;;;;;;;;;;5031947;28;20092;-74
2022/03/11 11:58:53;;;;;;;16.40;8.98;;;;;;;;;;5037471;28;20060;-74
2022/03/11 12:01:39;;;;;;;19.38;8.80;;;;;;;;;;5032097;28;20439;-75
2022/03/11 12:04:22;;;;;;;17.70;8.70;;;;;;;;;;5036151;28;20067;-74
2022/03/11 12:06:51;;;;;;;;;;;;;;;;;;5037964;28;20052;-73
2022/03/11 12:09:34;;;;;;;14.38;8.50;;;;;;;;;;5033686;28;19999;-74
2022/03/11 12:12:08;;;;;;;14.25;8.43;;;;;;;;;;5034323;28;20053;-73
2022/03/11 12:15:11;;;;;;;18.98;9.35;;;;;;;;;;5034471;28;20041;-74
2022/03/11 12:17:41;;;;;;;16.40;8.90;;;;;;;;;;5031539;28;20151;-74
2022/03/11 12:20:25;;;;;;;13.90;8.63;;;;;;;;;;5038185;28;20356;-74
2022/03/11 12:22:57;;;;;;;15.38;8.60;;;;;;;;;;5030758;28;20143;-74
2022/03/11 12:25:26;;;;;;;12.85;8.15;;;;;;;;;;5032447;28;20054;-75
2022/03/11 12:28:12;;;;;;;19.23;9.27;;;;;;;;;;5034967;28;20048;-74
2022/03/11 12:30:43;;;;;;;17.30;9.45;;;;;;;;;;5032252;28;20565;-74
2022/03/11 12:33:11;;;;;;;18.83;10.25;;;;;;;;;;5032191;28;20053;-73
2022/03/11 12:35:40;;;;;;;16.02;9.73;;;;;;;;;;5038390;28;20053;-74
2022/03/11 12:38:13;;;;;;;15.55;9.55;;;;;;;;;;5036965;28;20477;-79
2022/03/11 12:40:41;;;;;;;20.60;9.95;;;;;;;;;;5034492;28;20497;-80
2022/03/11 12:43:11;;;;;;;15.07;8.07;;;;;;;;;;5037161;28;20412;-80
2022/03/11 12:46:12;;;;;;;17.45;9.38;;;;;;;;;;5033767;28;20056;-74
2022/03/11 12:48:42;;;;;;;18.38;9.13;;;;;;;;;;5031973;28;20045;-73
2022/03/11 12:51:11;;;;;;;16.70;9.15;;;;;;;;;;5031076;28;20057;-76
2022/03/11 12:53:39;;;;;;;15.10;9.00;;;;;;;;;;5032000;28;20087;-80
2022/03/11 12:56:07;;;;;;;16.60;9.00;;;;;;;;;;5033286;28;20048;-80
2022/03/11 12:58:38;;;;;;;15.93;9.40;;;;;;;;;;5035040;28;20049;-73
2022/03/11 13:01:10;;;;;;;19.08;10.07;;;;;;;;;;5036706;28;21615;-73
2022/03/11 13:03:39;;;;;;;15.85;8.40;;;;;;;;;;5033919;28;20079;-74
2022/03/11 13:06:11;;;;;;;15.35;9.27;;;;;;;;;;5032675;28;20053;-74
2022/03/11 13:09:02;;;;;;;19.38;9.60;;;;;;;;;;5030990;28;20052;-73
2022/03/11 13:11:33;;;;;;;17.30;9.02;;;;;;;;;;5033652;28;20052;-75
2022/03/11 13:14:02;;;;;;;16.02;9.15;;;;;;;;;;5034295;28;20053;-81
2022/03/11 13:16:33;;;;;;;17.80;9.70;;;;;;;;;;5036853;28;20077;-81
2022/03/11 13:19:04;;;;;;;16.17;9.65;;;;;;;;;;5032128;28;20513;-73
2022/03/11 13:21:34;;;;;;;18.38;9.40;;;;;;;;;;5035425;28;20072;-73
2022/03/11 13:24:02;;;;;;;18.33;9.80;;;;;;;;;;5033939;28;20072;-73
2022/03/11 13:26:29;;;;;;;18.40;10.13;;;;;;;;;;5037739;28;20075;-73
2022/03/11 13:29:00;;;;;;;17.73;9.25;;;;;;;;;;5035967;28;20045;-81
2022/03/11 13:31:29;;;;;;;16.42;9.20;;;;;;;;;;5039607;28;20084;-83
2022/03/11 13:34:07;;;;;;;20.05;9.55;;;;;;;;;;5042383;28;20094;-80
2022/03/11 13:36:36;;;;;;;16.38;9.23;;;;;;;;;;5042546;28;20045;-73
2022/03/11 13:39:07;;;;;;;16.30;9.73;;;;;;;;;;5040288;28;20045;-82
2022/03/11 13:41:37;;;;;;;17.48;9.45;;;;;;;;;;5038769;28;20087;-73
2022/03/11 13:44:07;;;;;;;18.25;9.68;;;;;;;;;;5037625;28;20150;-73
2022/03/11 13:46:38;;;;;;;17.95;10.02;;;;;;;;;;5037635;28;20060;-72
2022/03/11 13:49:11;;;;;;;18.80;10.90;;;;;;;;;;5040729;28;20366;-82
2022/03/11 13:52:04;;;;;;;18.60;10.05;;;;;;;;;;5042590;28;20088;-80
2022/03/11 13:55:04;;;;;;;18.63;9.88;;;;;;;;;;5041572;28;20060;-83
2022/03/11 13:57:34;;;;;;;18.63;10.98;;;;;;;;;;5037716;28;20056;-72
2022/03/11 14:00:17;;;;;;;18.30;10.15;;;;;;;;;;5041102;28;20053;-72
2022/03/11 14:02:45;;;;;;;16.00;10.48;;;;;;;;;;5042321;28;20389;-82
2022/03/11 14:05:16;;;;;;;20.25;10.95;;;;;;;;;;5037591;28;20435;-81
2022/03/11 14:07:45;;;;;;;22.30;10.25;;;;;;;;;;5039386;28;20135;-82
2022/03/11 14:10:13;;;;;;;17.02;10.43;;;;;;;;;;5041065;28;20056;-81
2022/03/11 14:12:41;;;;;;;18.48;9.90;;;;;;;;;;5045019;28;20049;-72
2022/03/11 14:15:10;;;;;;;21.38;11.25;;;;;;;;;;5030325;28;20139;-73
2022/03/11 14:17:42;;;;;;;21.45;11.38;;;;;;;;;;5034482;28;20057;-73
2022/03/11 14:20:15;;;;;;;19.85;11.10;;;;;;;;;;5037871;28;20054;-82
2022/03/11 14:22:51;;;;;;;19.83;10.65;;;;;;;;;;5034721;28;20053;-72
2022/03/11 14:25:23;;;;;;;19.17;11.45;;;;;;;;;;5033674;28;20132;-72
2022/03/11 14:27:50;;;;;;;19.77;10.60;;;;;;;;;;5037755;28;20060;-80
2022/03/11 14:30:18;;;;;;;18.08;10.00;;;;;;;;;;5041361;28;20052;-81
2022/03/11 14:32:46;;;;;;;17.38;9.50;;;;;;;;;;5041814;28;20128;-84
2022/03/11 14:35:22;;;;;;;15.20;8.88;;;;;;;;;;5045507;28;20048;-82
2022/03/11 14:37:51;;;;;;;19.85;10.35;;;;;;;;;;5042509;28;20140;-73
2022/03/11 14:40:20;;;;;;;18.40;10.23;;;;;;;;;;5031135;28;20072;-72
2022/03/11 14:42:51;;;;;;;19.05;11.20;;;;;;;;;;5038136;28;20191;-82
2022/03/11 14:45:18;;;;;;;20.98;10.43;;;;;;;;;;5042169;28;20088;-82
2022/03/11 14:47:47;;;;;;;20.65;11.23;;;;;;;;;;5043485;28;20049;-73
2022/03/11 14:50:18;;;;;;;22.10;11.82;;;;;;;;;;5037338;28;20045;-72
2022/03/11 14:52:49;;;;;;;20.67;10.35;;;;;;;;;;5037493;28;20095;-82
2022/03/11 14:55:17;;;;;;;25.63;11.40;;;;;;;;;;5040038;28;20137;-77
2022/03/11 14:57:47;;;;;;;20.35;12.20;;;;;;;;;;5033986;28;20056;-71
2022/03/11 15:00:27;;;;;;;20.50;10.20;;;;;;;;;;5030212;28;20053;-74
2022/03/11 15:03:11;;;;;;;21.42;10.60;;;;;;;;;;5035378;28;20068;-74
2022/03/11 15:06:05;;;;;;;18.95;11.05;;;;;;;;;;5029226;28;20479;-74
2022/03/11 15:08:49;;;;;;;16.13;9.30;;;;;;;;;;5023007;28;20053;-78